sensor_id;sensor_type;location;lat;lon;timestamp;P1;durP1;ratioP1;P2;durP2;ratioP2
59828;SDS011;45708;51.848;107.620;2023-09-19T00:00:40;8.35;;;5.38;;
59828;SDS011;45708;51.848;107.620;2023-09-19T00:05:40;8.88;;;5.57;;
59828;SDS011;45708;51.848;107.620;2023-09-19T00:10:41;6.40;;;4.35;;
59828;SDS011;45708;51.848;107.620;2023-09-19T00:15:44;6.85;;;4.68;;
59828;SDS011;45708;51.848;107.620;2023-09-19T00:20:46;9.65;;;3.63;;
59828;SDS011;45708;51.848;107.620;2023-09-19T00:25:47;4.40;;;3.60;;
59828;SDS011;45708;51.848;107.620;2023-09-19T00:30:48;7.05;;;2.78;;
59828;SDS011;45708;51.848;107.620;2023-09-19T00:35:53;4.68;;;2.92;;
59828;SDS011;45708;51.848;107.620;2023-09-19T00:40:55;4.18;;;2.50;;
59828;SDS011;45708;51.848;107.620;2023-09-19T00:45:56;6.53;;;3.05;;
59828;SDS011;45708;51.848;107.620;2023-09-19T00:50:59;10.35;;;3.45;;
59828;SDS011;45708;51.848;107.620;2023-09-19T00:56:03;5.05;;;2.67;;
59828;SDS011;45708;51.848;107.620;2023-09-19T01:01:04;5.45;;;2.80;;
59828;SDS011;45708;51.848;107.620;2023-09-19T01:06:05;5.75;;;3.80;;
59828;SDS011;45708;51.848;107.620;2023-09-19T01:16:12;7.63;;;2.20;;
59828;SDS011;45708;51.848;107.620;2023-09-19T01:32:21;6.27;;;3.03;;
59828;SDS011;45708;51.848;107.620;2023-09-19T01:37:23;5.80;;;3.75;;
59828;SDS011;45708;51.848;107.620;2023-09-19T01:47:53;2.63;;;1.85;;
59828;SDS011;45708;51.848;107.620;2023-09-19T01:52:57;3.88;;;2.65;;
59828;SDS011;45708;51.848;107.620;2023-09-19T01:58:06;6.35;;;2.53;;
59828;SDS011;45708;51.848;107.620;2023-09-19T02:03:14;5.53;;;2.67;;
59828;SDS011;45708;51.848;107.620;2023-09-19T02:08:18;2.42;;;1.80;;
59828;SDS011;45708;51.848;107.620;2023-09-19T02:13:21;3.60;;;2.15;;
59828;SDS011;45708;51.848;107.620;2023-09-19T02:18:23;5.05;;;2.22;;
59828;SDS011;45708;51.848;107.620;2023-09-19T02:23:24;7.47;;;2.85;;
59828;SDS011;45708;51.848;107.620;2023-09-19T02:28:25;2.17;;;1.20;;
59828;SDS011;45708;51.848;107.620;2023-09-19T02:33:29;1.65;;;1.13;;
59828;SDS011;45708;51.848;107.620;2023-09-19T02:38:29;2.80;;;2.13;;
59828;SDS011;45708;51.848;107.620;2023-09-19T02:43:30;3.65;;;2.22;;
59828;SDS011;45708;51.848;107.620;2023-09-19T02:48:31;11.32;;;2.70;;
59828;SDS011;45708;51.848;107.620;2023-09-19T02:53:32;2.33;;;1.88;;
59828;SDS011;45708;51.848;107.620;2023-09-19T02:58:33;3.38;;;2.05;;
59828;SDS011;45708;51.848;107.620;2023-09-19T03:03:34;2.45;;;1.92;;
59828;SDS011;45708;51.848;107.620;2023-09-19T03:08:35;4.00;;;1.70;;
59828;SDS011;45708;51.848;107.620;2023-09-19T03:13:35;4.32;;;2.10;;
59828;SDS011;45708;51.848;107.620;2023-09-19T03:18:36;8.98;;;2.38;;
59828;SDS011;45708;51.848;107.620;2023-09-19T03:23:37;5.13;;;1.92;;
59828;SDS011;45708;51.848;107.620;2023-09-19T03:28:38;4.10;;;3.58;;
59828;SDS011;45708;51.848;107.620;2023-09-19T03:33:39;4.35;;;3.08;;
59828;SDS011;45708;51.848;107.620;2023-09-19T03:38:40;6.63;;;2.60;;
59828;SDS011;45708;51.848;107.620;2023-09-19T03:43:40;9.65;;;3.47;;
59828;SDS011;45708;51.848;107.620;2023-09-19T03:48:41;2.80;;;2.58;;
59828;SDS011;45708;51.848;107.620;2023-09-19T03:53:42;6.25;;;2.30;;
59828;SDS011;45708;51.848;107.620;2023-09-19T03:58:43;3.63;;;2.08;;
59828;SDS011;45708;51.848;107.620;2023-09-19T04:03:44;6.55;;;2.47;;
59828;SDS011;45708;51.848;107.620;2023-09-19T04:08:44;10.48;;;3.42;;
59828;SDS011;45708;51.848;107.620;2023-09-19T04:13:45;3.72;;;2.00;;
59828;SDS011;45708;51.848;107.620;2023-09-19T04:18:46;3.65;;;2.58;;
59828;SDS011;45708;51.848;107.620;2023-09-19T04:23:47;6.95;;;5.40;;
59828;SDS011;45708;51.848;107.620;2023-09-19T04:28:48;2.60;;;1.98;;
59828;SDS011;45708;51.848;107.620;2023-09-19T04:33:48;3.42;;;1.92;;
59828;SDS011;45708;51.848;107.620;2023-09-19T04:38:50;1.95;;;1.30;;
59828;SDS011;45708;51.848;107.620;2023-09-19T04:43:50;1.95;;;1.40;;
59828;SDS011;45708;51.848;107.620;2023-09-19T04:48:51;1.75;;;1.65;;
59828;SDS011;45708;51.848;107.620;2023-09-19T04:53:52;1.67;;;1.58;;
59828;SDS011;45708;51.848;107.620;2023-09-19T04:58:53;2.60;;;2.35;;
59828;SDS011;45708;51.848;107.620;2023-09-19T05:03:54;7.07;;;2.08;;
59828;SDS011;45708;51.848;107.620;2023-09-19T05:08:55;1.80;;;1.70;;
59828;SDS011;45708;51.848;107.620;2023-09-19T05:13:56;1.83;;;1.48;;
59828;SDS011;45708;51.848;107.620;2023-09-19T05:18:57;3.58;;;1.73;;
59828;SDS011;45708;51.848;107.620;2023-09-19T05:23:58;1.50;;;1.20;;
59828;SDS011;45708;51.848;107.620;2023-09-19T05:28:59;2.30;;;1.63;;
59828;SDS011;45708;51.848;107.620;2023-09-19T05:33:59;1.42;;;1.35;;
59828;SDS011;45708;51.848;107.620;2023-09-19T05:39:00;2.67;;;1.42;;
59828;SDS011;45708;51.848;107.620;2023-09-19T05:44:01;1.65;;;1.55;;
59828;SDS011;45708;51.848;107.620;2023-09-19T05:49:03;2.58;;;1.33;;
59828;SDS011;45708;51.848;107.620;2023-09-19T05:54:03;2.80;;;1.63;;
59828;SDS011;45708;51.848;107.620;2023-09-19T05:59:04;1.88;;;1.00;;
59828;SDS011;45708;51.848;107.620;2023-09-19T06:04:05;5.78;;;1.15;;
59828;SDS011;45708;51.848;107.620;2023-09-19T06:09:06;2.90;;;1.58;;
59828;SDS011;45708;51.848;107.620;2023-09-19T06:14:07;2.38;;;1.30;;
59828;SDS011;45708;51.848;107.620;2023-09-19T06:19:09;3.38;;;1.45;;
59828;SDS011;45708;51.848;107.620;2023-09-19T06:24:09;5.35;;;2.78;;
59828;SDS011;45708;51.848;107.620;2023-09-19T06:29:10;2.60;;;1.38;;
59828;SDS011;45708;51.848;107.620;2023-09-19T06:34:11;2.25;;;1.27;;
59828;SDS011;45708;51.848;107.620;2023-09-19T06:39:12;3.50;;;1.65;;
59828;SDS011;45708;51.848;107.620;2023-09-19T06:44:13;5.78;;;1.95;;
59828;SDS011;45708;51.848;107.620;2023-09-19T06:49:13;2.17;;;1.20;;
59828;SDS011;45708;51.848;107.620;2023-09-19T06:54:14;6.00;;;2.33;;
59828;SDS011;45708;51.848;107.620;2023-09-19T06:59:15;2.15;;;1.23;;
59828;SDS011;45708;51.848;107.620;2023-09-19T07:04:16;3.28;;;2.30;;
59828;SDS011;45708;51.848;107.620;2023-09-19T07:09:17;2.63;;;2.40;;
59828;SDS011;45708;51.848;107.620;2023-09-19T07:14:18;2.72;;;1.73;;
59828;SDS011;45708;51.848;107.620;2023-09-19T07:19:19;3.85;;;1.33;;
59828;SDS011;45708;51.848;107.620;2023-09-19T07:24:20;1.63;;;1.33;;
59828;SDS011;45708;51.848;107.620;2023-09-19T07:29:22;1.55;;;1.30;;
59828;SDS011;45708;51.848;107.620;2023-09-19T07:34:23;3.15;;;1.52;;
59828;SDS011;45708;51.848;107.620;2023-09-19T07:39:24;10.25;;;4.85;;
59828;SDS011;45708;51.848;107.620;2023-09-19T07:44:24;2.10;;;1.90;;
59828;SDS011;45708;51.848;107.620;2023-09-19T07:49:25;1.77;;;1.67;;
59828;SDS011;45708;51.848;107.620;2023-09-19T07:54:26;5.68;;;3.42;;
59828;SDS011;45708;51.848;107.620;2023-09-19T07:59:27;6.07;;;1.83;;
59828;SDS011;45708;51.848;107.620;2023-09-19T08:04:27;6.13;;;2.97;;
59828;SDS011;45708;51.848;107.620;2023-09-19T08:09:28;4.22;;;1.70;;
59828;SDS011;45708;51.848;107.620;2023-09-19T08:14:29;4.10;;;2.45;;
59828;SDS011;45708;51.848;107.620;2023-09-19T08:19:31;1.70;;;1.17;;
59828;SDS011;45708;51.848;107.620;2023-09-19T08:24:32;2.42;;;1.73;;
59828;SDS011;45708;51.848;107.620;2023-09-19T08:29:33;6.88;;;4.10;;
59828;SDS011;45708;51.848;107.620;2023-09-19T08:34:33;2.38;;;1.80;;
59828;SDS011;45708;51.848;107.620;2023-09-19T08:39:34;3.08;;;1.48;;
59828;SDS011;45708;51.848;107.620;2023-09-19T08:44:36;3.33;;;2.72;;
59828;SDS011;45708;51.848;107.620;2023-09-19T08:50:24;2.15;;;1.40;;
59828;SDS011;45708;51.848;107.620;2023-09-19T08:55:02;4.15;;;1.80;;
59828;SDS011;45708;51.848;107.620;2023-09-19T09:00:03;1.98;;;1.52;;
59828;SDS011;45708;51.848;107.620;2023-09-19T09:05:05;2.70;;;1.40;;
59828;SDS011;45708;51.848;107.620;2023-09-19T09:10:07;1.15;;;0.90;;
59828;SDS011;45708;51.848;107.620;2023-09-19T09:15:08;2.88;;;1.42;;
59828;SDS011;45708;51.848;107.620;2023-09-19T09:20:09;2.78;;;1.52;;
59828;SDS011;45708;51.848;107.620;2023-09-19T09:25:10;2.25;;;1.50;;
59828;SDS011;45708;51.848;107.620;2023-09-19T09:30:12;3.42;;;3.13;;
59828;SDS011;45708;51.848;107.620;2023-09-19T09:35:36;6.32;;;4.40;;
59828;SDS011;45708;51.848;107.620;2023-09-19T09:40:51;3.92;;;2.58;;
59828;SDS011;45708;51.848;107.620;2023-09-19T09:51:13;5.68;;;3.00;;
59828;SDS011;45708;51.848;107.620;2023-09-19T09:56:14;3.95;;;3.47;;
59828;SDS011;45708;51.848;107.620;2023-09-19T10:01:15;2.63;;;1.92;;
59828;SDS011;45708;51.848;107.620;2023-09-19T10:06:17;6.85;;;1.70;;
59828;SDS011;45708;51.848;107.620;2023-09-19T10:11:18;1.40;;;1.13;;
59828;SDS011;45708;51.848;107.620;2023-09-19T10:16:19;1.00;;;0.90;;
59828;SDS011;45708;51.848;107.620;2023-09-19T10:21:21;2.70;;;2.08;;
59828;SDS011;45708;51.848;107.620;2023-09-19T10:26:22;4.10;;;2.72;;
59828;SDS011;45708;51.848;107.620;2023-09-19T10:31:23;11.15;;;5.93;;
59828;SDS011;45708;51.848;107.620;2023-09-19T10:36:27;12.98;;;5.78;;
59828;SDS011;45708;51.848;107.620;2023-09-19T10:41:34;8.23;;;4.55;;
59828;SDS011;45708;51.848;107.620;2023-09-19T10:46:35;4.43;;;3.85;;
59828;SDS011;45708;51.848;107.620;2023-09-19T10:51:41;3.53;;;3.08;;
59828;SDS011;45708;51.848;107.620;2023-09-19T10:56:46;4.30;;;2.70;;
59828;SDS011;45708;51.848;107.620;2023-09-19T11:01:50;7.03;;;3.30;;
59828;SDS011;45708;51.848;107.620;2023-09-19T11:07:05;2.10;;;1.42;;
59828;SDS011;45708;51.848;107.620;2023-09-19T11:12:10;2.45;;;1.52;;
59828;SDS011;45708;51.848;107.620;2023-09-19T11:22:12;2.67;;;1.30;;
59828;SDS011;45708;51.848;107.620;2023-09-19T11:27:13;1.40;;;1.23;;
59828;SDS011;45708;51.848;107.620;2023-09-19T11:38:11;4.68;;;2.47;;
59828;SDS011;45708;51.848;107.620;2023-09-19T11:42:49;20.30;;;9.05;;
59828;SDS011;45708;51.848;107.620;2023-09-19T11:47:50;15.18;;;6.88;;
59828;SDS011;45708;51.848;107.620;2023-09-19T11:52:51;14.32;;;6.80;;
59828;SDS011;45708;51.848;107.620;2023-09-19T11:57:55;22.23;;;12.23;;
59828;SDS011;45708;51.848;107.620;2023-09-19T12:02:56;13.70;;;9.00;;
59828;SDS011;45708;51.848;107.620;2023-09-19T12:08:05;20.80;;;11.52;;
59828;SDS011;45708;51.848;107.620;2023-09-19T12:13:09;22.65;;;13.05;;
59828;SDS011;45708;51.848;107.620;2023-09-19T12:18:25;10.98;;;6.97;;
59828;SDS011;45708;51.848;107.620;2023-09-19T12:23:30;20.90;;;8.35;;
59828;SDS011;45708;51.848;107.620;2023-09-19T12:28:30;12.55;;;6.47;;
59828;SDS011;45708;51.848;107.620;2023-09-19T12:38:48;15.38;;;6.28;;
59828;SDS011;45708;51.848;107.620;2023-09-19T12:43:49;7.15;;;5.13;;
59828;SDS011;45708;51.848;107.620;2023-09-19T12:49:14;5.70;;;4.40;;
59828;SDS011;45708;51.848;107.620;2023-09-19T12:54:20;24.98;;;7.28;;
59828;SDS011;45708;51.848;107.620;2023-09-19T12:59:28;6.95;;;3.30;;
59828;SDS011;45708;51.848;107.620;2023-09-19T13:04:30;6.93;;;4.65;;
59828;SDS011;45708;51.848;107.620;2023-09-19T13:09:31;16.33;;;8.10;;
59828;SDS011;45708;51.848;107.620;2023-09-19T13:14:31;23.52;;;9.38;;
59828;SDS011;45708;51.848;107.620;2023-09-19T13:24:46;7.50;;;6.68;;
59828;SDS011;45708;51.848;107.620;2023-09-19T13:29:49;15.52;;;8.88;;
59828;SDS011;45708;51.848;107.620;2023-09-19T13:34:50;20.63;;;6.78;;
59828;SDS011;45708;51.848;107.620;2023-09-19T13:39:53;11.73;;;7.80;;
59828;SDS011;45708;51.848;107.620;2023-09-19T13:44:54;7.10;;;4.82;;
59828;SDS011;45708;51.848;107.620;2023-09-19T13:49:54;11.65;;;7.93;;
59828;SDS011;45708;51.848;107.620;2023-09-19T13:54:55;10.93;;;6.45;;
59828;SDS011;45708;51.848;107.620;2023-09-19T13:59:56;10.65;;;6.00;;
59828;SDS011;45708;51.848;107.620;2023-09-19T14:04:57;7.85;;;4.53;;
59828;SDS011;45708;51.848;107.620;2023-09-19T14:09:58;5.18;;;4.68;;
59828;SDS011;45708;51.848;107.620;2023-09-19T14:14:59;7.53;;;5.68;;
59828;SDS011;45708;51.848;107.620;2023-09-19T14:20:00;12.07;;;6.55;;
59828;SDS011;45708;51.848;107.620;2023-09-19T14:25:01;4.80;;;3.72;;
59828;SDS011;45708;51.848;107.620;2023-09-19T14:30:01;7.88;;;5.10;;
59828;SDS011;45708;51.848;107.620;2023-09-19T14:35:02;6.40;;;5.10;;
59828;SDS011;45708;51.848;107.620;2023-09-19T14:40:04;5.00;;;3.45;;
59828;SDS011;45708;51.848;107.620;2023-09-19T14:45:05;10.00;;;4.47;;
59828;SDS011;45708;51.848;107.620;2023-09-19T14:50:06;9.80;;;6.05;;
59828;SDS011;45708;51.848;107.620;2023-09-19T14:55:07;8.98;;;5.78;;
59828;SDS011;45708;51.848;107.620;2023-09-19T15:00:08;6.93;;;4.15;;
59828;SDS011;45708;51.848;107.620;2023-09-19T15:05:11;5.63;;;3.90;;
59828;SDS011;45708;51.848;107.620;2023-09-19T15:10:12;4.68;;;4.35;;
59828;SDS011;45708;51.848;107.620;2023-09-19T15:15:12;5.35;;;3.42;;
59828;SDS011;45708;51.848;107.620;2023-09-19T15:20:13;3.13;;;2.90;;
59828;SDS011;45708;51.848;107.620;2023-09-19T15:25:14;8.52;;;3.58;;
59828;SDS011;45708;51.848;107.620;2023-09-19T15:30:15;5.05;;;3.92;;
59828;SDS011;45708;51.848;107.620;2023-09-19T15:35:16;5.50;;;3.38;;
59828;SDS011;45708;51.848;107.620;2023-09-19T15:40:17;5.85;;;3.75;;
59828;SDS011;45708;51.848;107.620;2023-09-19T15:45:18;5.82;;;3.97;;
59828;SDS011;45708;51.848;107.620;2023-09-19T15:50:18;6.80;;;3.47;;
59828;SDS011;45708;51.848;107.620;2023-09-19T15:55:19;4.95;;;3.65;;
59828;SDS011;45708;51.848;107.620;2023-09-19T16:00:20;7.43;;;3.08;;
59828;SDS011;45708;51.848;107.620;2023-09-19T16:05:21;4.22;;;3.13;;
59828;SDS011;45708;51.848;107.620;2023-09-19T16:10:22;5.82;;;2.60;;
59828;SDS011;45708;51.848;107.620;2023-09-19T16:15:22;9.32;;;4.35;;
59828;SDS011;45708;51.848;107.620;2023-09-19T16:20:23;5.72;;;3.13;;
59828;SDS011;45708;51.848;107.620;2023-09-19T16:25:24;8.95;;;4.13;;
59828;SDS011;45708;51.848;107.620;2023-09-19T16:30:25;3.47;;;3.17;;
59828;SDS011;45708;51.848;107.620;2023-09-19T16:35:25;3.40;;;3.05;;
59828;SDS011;45708;51.848;107.620;2023-09-19T16:40:26;3.38;;;2.55;;
59828;SDS011;45708;51.848;107.620;2023-09-19T16:45:27;13.15;;;4.53;;
59828;SDS011;45708;51.848;107.620;2023-09-19T16:50:28;5.30;;;1.92;;
59828;SDS011;45708;51.848;107.620;2023-09-19T16:55:29;1.88;;;1.77;;
59828;SDS011;45708;51.848;107.620;2023-09-19T17:00:29;0.80;;;0.80;;
59828;SDS011;45708;51.848;107.620;2023-09-19T17:05:30;2.13;;;1.92;;
59828;SDS011;45708;51.848;107.620;2023-09-19T17:10:32;3.38;;;2.95;;
59828;SDS011;45708;51.848;107.620;2023-09-19T17:15:33;3.42;;;1.73;;
59828;SDS011;45708;51.848;107.620;2023-09-19T17:20:33;1.90;;;1.65;;
59828;SDS011;45708;51.848;107.620;2023-09-19T17:25:34;2.15;;;1.90;;
59828;SDS011;45708;51.848;107.620;2023-09-19T17:30:35;4.18;;;3.88;;
59828;SDS011;45708;51.848;107.620;2023-09-19T17:35:36;7.25;;;3.13;;
59828;SDS011;45708;51.848;107.620;2023-09-19T17:40:40;5.57;;;2.13;;
59828;SDS011;45708;51.848;107.620;2023-09-19T17:45:41;3.70;;;3.35;;
59828;SDS011;45708;51.848;107.620;2023-09-19T17:50:42;2.30;;;1.85;;
59828;SDS011;45708;51.848;107.620;2023-09-19T17:55:43;3.22;;;3.00;;
59828;SDS011;45708;51.848;107.620;2023-09-19T18:00:43;2.60;;;2.30;;
59828;SDS011;45708;51.848;107.620;2023-09-19T18:05:44;2.58;;;2.13;;
59828;SDS011;45708;51.848;107.620;2023-09-19T18:10:50;1.80;;;1.58;;
59828;SDS011;45708;51.848;107.620;2023-09-19T18:15:51;5.05;;;1.88;;
59828;SDS011;45708;51.848;107.620;2023-09-19T18:20:52;2.15;;;1.95;;
59828;SDS011;45708;51.848;107.620;2023-09-19T18:25:56;5.22;;;2.80;;
59828;SDS011;45708;51.848;107.620;2023-09-19T18:30:58;9.27;;;3.20;;
59828;SDS011;45708;51.848;107.620;2023-09-19T18:36:02;5.28;;;2.42;;
59828;SDS011;45708;51.848;107.620;2023-09-19T18:41:11;2.85;;;2.53;;
59828;SDS011;45708;51.848;107.620;2023-09-19T18:46:18;2.33;;;2.05;;
59828;SDS011;45708;51.848;107.620;2023-09-19T18:51:18;4.05;;;2.35;;
59828;SDS011;45708;51.848;107.620;2023-09-19T18:56:19;1.42;;;1.27;;
59828;SDS011;45708;51.848;107.620;2023-09-19T19:01:20;2.15;;;2.03;;
59828;SDS011;45708;51.848;107.620;2023-09-19T19:06:21;5.53;;;1.63;;
59828;SDS011;45708;51.848;107.620;2023-09-19T19:11:21;3.30;;;2.08;;
59828;SDS011;45708;51.848;107.620;2023-09-19T19:16:22;1.48;;;1.38;;
59828;SDS011;45708;51.848;107.620;2023-09-19T19:21:23;1.52;;;1.42;;
59828;SDS011;45708;51.848;107.620;2023-09-19T19:26:24;1.73;;;1.63;;
59828;SDS011;45708;51.848;107.620;2023-09-19T19:31:25;1.00;;;0.98;;
59828;SDS011;45708;51.848;107.620;2023-09-19T19:36:25;6.50;;;3.63;;
59828;SDS011;45708;51.848;107.620;2023-09-19T19:41:26;4.20;;;2.65;;
59828;SDS011;45708;51.848;107.620;2023-09-19T19:46:27;1.50;;;1.38;;
59828;SDS011;45708;51.848;107.620;2023-09-19T19:51:28;3.67;;;2.10;;
59828;SDS011;45708;51.848;107.620;2023-09-19T19:56:29;1.95;;;1.58;;
59828;SDS011;45708;51.848;107.620;2023-09-19T20:01:30;2.08;;;1.85;;
59828;SDS011;45708;51.848;107.620;2023-09-19T20:06:31;4.40;;;2.65;;
59828;SDS011;45708;51.848;107.620;2023-09-19T20:11:32;2.17;;;2.00;;
59828;SDS011;45708;51.848;107.620;2023-09-19T20:32:04;1.92;;;1.83;;
59828;SDS011;45708;51.848;107.620;2023-09-19T20:37:05;0.90;;;0.90;;
59828;SDS011;45708;51.848;107.620;2023-09-19T20:42:06;2.92;;;2.45;;
59828;SDS011;45708;51.848;107.620;2023-09-19T20:47:07;2.45;;;2.30;;
59828;SDS011;45708;51.848;107.620;2023-09-19T20:52:08;1.58;;;1.30;;
59828;SDS011;45708;51.848;107.620;2023-09-19T20:57:09;3.47;;;3.03;;
59828;SDS011;45708;51.848;107.620;2023-09-19T21:02:10;1.92;;;1.67;;
59828;SDS011;45708;51.848;107.620;2023-09-19T21:07:11;1.65;;;1.48;;
59828;SDS011;45708;51.848;107.620;2023-09-19T21:12:11;2.17;;;1.15;;
59828;SDS011;45708;51.848;107.620;2023-09-19T21:17:12;1.15;;;1.15;;
59828;SDS011;45708;51.848;107.620;2023-09-19T21:22:13;0.82;;;0.82;;
59828;SDS011;45708;51.848;107.620;2023-09-19T21:27:14;0.93;;;0.93;;
59828;SDS011;45708;51.848;107.620;2023-09-19T21:32:15;3.70;;;2.20;;
59828;SDS011;45708;51.848;107.620;2023-09-19T21:37:16;1.60;;;1.50;;
59828;SDS011;45708;51.848;107.620;2023-09-19T21:42:16;3.05;;;1.40;;
59828;SDS011;45708;51.848;107.620;2023-09-19T21:47:17;3.33;;;1.73;;
59828;SDS011;45708;51.848;107.620;2023-09-19T21:52:18;2.00;;;1.85;;
59828;SDS011;45708;51.848;107.620;2023-09-19T21:57:19;1.92;;;1.83;;
59828;SDS011;45708;51.848;107.620;2023-09-19T22:02:19;1.27;;;0.73;;
59828;SDS011;45708;51.848;107.620;2023-09-19T22:07:20;1.20;;;0.88;;
59828;SDS011;45708;51.848;107.620;2023-09-19T22:12:21;1.67;;;1.58;;
59828;SDS011;45708;51.848;107.620;2023-09-19T22:17:22;3.05;;;2.85;;
59828;SDS011;45708;51.848;107.620;2023-09-19T22:22:22;3.20;;;1.38;;
59828;SDS011;45708;51.848;107.620;2023-09-19T22:27:23;6.28;;;2.30;;
59828;SDS011;45708;51.848;107.620;2023-09-19T22:32:24;0.75;;;0.75;;
59828;SDS011;45708;51.848;107.620;2023-09-19T22:37:25;1.10;;;1.10;;
59828;SDS011;45708;51.848;107.620;2023-09-19T22:42:25;3.22;;;1.45;;
59828;SDS011;45708;51.848;107.620;2023-09-19T22:47:26;2.13;;;1.98;;
59828;SDS011;45708;51.848;107.620;2023-09-19T22:52:27;4.03;;;2.63;;
59828;SDS011;45708;51.848;107.620;2023-09-19T22:57:28;1.80;;;1.75;;
59828;SDS011;45708;51.848;107.620;2023-09-19T23:02:28;5.18;;;1.58;;
59828;SDS011;45708;51.848;107.620;2023-09-19T23:07:29;1.80;;;1.45;;
59828;SDS011;45708;51.848;107.620;2023-09-19T23:12:30;5.90;;;2.55;;
59828;SDS011;45708;51.848;107.620;2023-09-19T23:17:31;2.70;;;2.50;;
59828;SDS011;45708;51.848;107.620;2023-09-19T23:22:32;2.53;;;2.10;;
59828;SDS011;45708;51.848;107.620;2023-09-19T23:27:32;3.33;;;2.38;;
59828;SDS011;45708;51.848;107.620;2023-09-19T23:32:33;6.55;;;4.20;;
59828;SDS011;45708;51.848;107.620;2023-09-19T23:37:35;1.05;;;1.02;;
59828;SDS011;45708;51.848;107.620;2023-09-19T23:42:36;5.53;;;3.53;;
59828;SDS011;45708;51.848;107.620;2023-09-19T23:47:37;3.28;;;2.97;;
59828;SDS011;45708;51.848;107.620;2023-09-19T23:52:38;4.72;;;3.88;;
59828;SDS011;45708;51.848;107.620;2023-09-19T23:57:38;2.75;;;2.55;;
